Time;durP1;ratioP1;P1;durP2;ratioP2;P2;SDS_P1;SDS_P2;PMS_P1;PMS_P2;Temp;Humidity;BMP_temperature;BMP_pressure;BME280_temperature;BME280_humidity;BME280_pressure;Samples;Min_cycle;Max_cycle;Signal;HPM_P1;HPM_P2
2021/05/14 00:02:42;;;;;;;17.30;14.30;;;;;;;15.06;70.64;99156.48;5154504;56;1140755;-75
2021/05/14 00:07:51;;;;;;;18.33;13.97;;;;;;;15.02;70.79;99149.86;5154723;56;1140852;-72
2021/05/14 00:12:58;;;;;;;18.23;13.85;;;;;;;15.04;70.72;99149.17;5153861;56;1141121;-73
2021/05/14 00:18:04;;;;;;;19.47;11.17;;;;;;;15.02;70.79;99149.03;5154603;56;1140923;-73
2021/05/14 00:23:11;;;;;;;9.87;7.87;;;;;;;15.05;71.13;99146.02;5154283;56;1140503;-72
2021/05/14 00:28:17;;;;;;;21.33;13.53;;;;;;;14.99;71.77;99158.20;5154878;56;1136458;-73
2021/05/14 00:33:23;;;;;;;20.00;14.07;;;;;;;14.97;71.37;99148.77;5154275;56;1140617;-73
2021/05/14 00:38:28;;;;;;;18.97;15.27;;;;;;;14.90;71.55;99157.13;5154378;56;1140796;-74
2021/05/14 00:43:34;;;;;;;21.00;13.10;;;;;;;14.81;71.87;99160.89;5154385;56;1140505;-74
2021/05/14 00:48:39;;;;;;;13.27;9.50;;;;;;;14.74;72.54;99157.59;5154413;56;1140798;-72
2021/05/14 00:53:45;;;;;;;17.67;12.30;;;;;;;14.72;72.63;99164.09;5154890;56;1141205;-75
2021/05/14 00:58:51;;;;;;;25.30;15.78;;;;;;;14.69;72.54;99156.46;5153722;56;1140424;-75
2021/05/14 01:03:57;;;;;;;16.15;11.20;;;;;;;14.65;72.52;99169.33;5153289;56;1140396;-73
2021/05/14 01:09:05;;;;;;;23.23;12.67;;;;;;;14.62;73.50;99171.00;5153507;56;1140894;-74
2021/05/14 01:14:12;;;;;;;14.40;9.57;;;;;;;14.58;73.41;99177.67;5152996;56;1140561;-74
2021/05/14 01:19:18;;;;;;;19.27;12.73;;;;;;;14.45;73.71;99156.66;5153423;56;1138464;-73
2021/05/14 01:24:24;;;;;;;13.63;10.40;;;;;;;14.48;73.86;99169.11;5153200;56;1140367;-72
2021/05/14 01:29:30;;;;;;;18.17;13.57;;;;;;;14.39;74.04;99176.77;5153182;56;1140309;-75
2021/05/14 01:34:36;;;;;;;15.23;11.20;;;;;;;14.38;73.32;99166.62;5153400;56;1140412;-73
2021/05/14 01:39:44;;;;;;;17.73;11.17;;;;;;;14.29;74.37;99166.87;5153130;56;1140788;-72
2021/05/14 01:44:50;;;;;;;21.25;15.30;;;;;;;14.18;74.34;99177.41;5153325;56;1140463;-73
2021/05/14 01:49:56;;;;;;;22.00;15.08;;;;;;;14.17;74.03;99182.40;5153562;56;1140386;-72
2021/05/14 01:55:03;;;;;;;19.32;12.65;;;;;;;14.15;73.71;99175.09;5153315;56;1140616;-74
2021/05/14 02:00:11;;;;;;;21.60;12.83;;;;;;;14.08;74.65;99176.78;5153812;56;1140806;-73
2021/05/14 02:05:17;;;;;;;19.00;13.27;;;;;;;14.04;74.17;99184.80;5154018;56;1140482;-72
2021/05/14 02:10:26;;;;;;;18.47;11.80;;;;;;;13.97;74.23;99189.13;5154329;56;1140631;-72
2021/05/14 02:15:32;;;;;;;18.27;12.53;;;;;;;14.01;74.57;99185.14;5154120;56;1140880;-73
2021/05/14 02:20:38;;;;;;;20.97;11.20;;;;;;;13.98;75.48;99186.31;5154252;56;1140855;-74
2021/05/14 02:25:44;;;;;;;20.37;13.60;;;;;;;13.91;75.33;99191.97;5154456;56;1140617;-73
2021/05/14 02:30:50;;;;;;;12.63;9.67;;;;;;;13.88;74.77;99198.16;5154426;56;1140870;-72
2021/05/14 02:35:56;;;;;;;16.23;11.40;;;;;;;13.89;75.12;99199.81;5154492;56;1138593;-73
2021/05/14 02:41:04;;;;;;;16.95;12.40;;;;;;;13.85;75.00;99198.00;5154387;56;1140856;-72
2021/05/14 02:46:10;;;;;;;11.40;8.23;;;;;;;13.80;74.74;99201.66;5154133;56;1140434;-74
2021/05/14 02:51:15;;;;;;;20.00;11.90;;;;;;;13.80;75.00;99197.67;5154388;56;1138330;-72
2021/05/14 02:56:21;;;;;;;13.63;10.23;;;;;;;13.69;74.49;99194.06;5154555;56;1140461;-73
2021/05/14 03:01:27;;;;;;;13.50;9.80;;;;;;;13.68;74.64;99195.06;5154783;56;1140827;-73
2021/05/14 03:06:34;;;;;;;11.27;8.57;;;;;;;13.66;74.69;99207.69;5155043;56;1138303;-73
2021/05/14 03:11:39;;;;;;;18.13;8.77;;;;;;;13.58;75.16;99199.75;5155130;56;1138786;-73
2021/05/14 03:16:45;;;;;;;12.68;10.20;;;;;;;13.57;74.44;99194.94;5154809;56;1138787;-73
2021/05/14 03:21:51;;;;;;;15.87;9.83;;;;;;;13.58;74.64;99203.73;5155000;56;1141069;-72
2021/05/14 03:26:57;;;;;;;13.03;8.60;;;;;;;13.50;74.77;99206.40;5155103;56;1138977;-73
2021/05/14 03:32:04;;;;;;;17.40;11.48;;;;;;;13.43;75.31;99206.77;5155126;56;1138726;-72
2021/05/14 03:37:10;;;;;;;18.57;11.63;;;;;;;13.35;75.39;99207.09;5154896;56;1140796;-73
2021/05/14 03:42:20;;;;;;;11.37;8.30;;;;;;;13.38;75.15;99214.73;5154921;56;1140889;-73
2021/05/14 03:47:26;;;;;;;13.20;9.77;;;;;;;13.44;75.10;99219.05;5154940;56;1138859;-73
2021/05/14 03:52:33;;;;;;;12.20;8.53;;;;;;;13.48;74.93;99223.83;5154956;56;1139057;-73
2021/05/14 03:57:39;;;;;;;14.40;8.03;;;;;;;13.48;74.93;99225.16;5154919;56;1138727;-73
2021/05/14 04:02:45;;;;;;;11.93;9.43;;;;;;;13.46;75.12;99215.20;5155019;56;1138926;-73
2021/05/14 04:07:50;;;;;;;13.93;11.20;;;;;;;13.47;75.02;99216.02;5155037;56;1138759;-73
2021/05/14 04:18:20;;;;;;;15.03;8.13;;;;;;;13.54;75.34;99220.51;5154694;56;1140575;-74
2021/05/14 04:23:26;;;;;;;30.73;13.43;;;;;;;13.54;75.34;99220.51;5154929;56;1139001;-72
2021/05/14 04:28:32;;;;;;;14.10;11.37;;;;;;;13.58;75.31;99222.34;5154655;56;1140538;-72
2021/05/14 04:33:38;;;;;;;13.57;8.90;;;;;;;13.58;74.91;99220.51;5154549;56;1140470;-73
2021/05/14 04:38:44;;;;;;;12.03;10.40;;;;;;;13.62;75.29;99224.95;5154927;56;1138341;-74
2021/05/14 04:43:50;;;;;;;9.75;7.35;;;;;;;13.62;75.03;99224.45;5154650;56;1140631;-74
2021/05/14 04:48:57;;;;;;;12.73;9.08;;;;;;;13.63;75.29;99226.13;5154747;56;1136305;-73
2021/05/14 04:54:03;;;;;;;14.50;9.65;;;;;;;13.62;75.69;99229.77;5154789;56;1139003;-73
2021/05/14 04:59:09;;;;;;;12.23;8.47;;;;;;;13.58;76.53;99231.13;5154740;56;1138329;-73
2021/05/14 05:04:15;;;;;;;14.63;8.73;;;;;;;13.50;76.46;99239.10;5154687;56;1138390;-72
2021/05/14 05:09:21;;;;;;;16.27;9.80;;;;;;;13.49;76.30;99240.09;5154546;56;1138362;-73
2021/05/14 05:14:27;;;;;;;20.40;12.10;;;;;;;13.51;76.09;99239.94;5154812;56;1138710;-73
2021/05/14 05:19:33;;;;;;;13.27;9.27;;;;;;;13.53;76.07;99241.43;5154423;56;1140369;-72
2021/05/14 05:24:39;;;;;;;13.60;9.33;;;;;;;13.59;76.05;99249.23;5154672;56;1138401;-73
2021/05/14 05:29:44;;;;;;;10.93;8.77;;;;;;;13.61;76.14;99246.71;5154710;56;1138358;-73
2021/05/14 05:34:51;;;;;;;20.33;9.83;;;;;;;13.62;76.05;99249.70;5154857;56;1138294;-72
2021/05/14 05:39:57;;;;;;;11.17;8.63;;;;;;;13.60;76.15;99250.86;5154899;56;1138465;-73
2021/05/14 05:45:04;;;;;;;14.07;9.40;;;;;;;13.58;76.34;99251.06;5154833;56;1138757;-73
2021/05/14 05:50:11;;;;;;;15.80;8.67;;;;;;;13.57;76.47;99260.02;5154557;56;1138690;-73
2021/05/14 05:55:17;;;;;;;17.27;9.47;;;;;;;13.54;76.32;99264.84;5154662;56;1138677;-73
2021/05/14 06:00:23;;;;;;;19.07;9.90;;;;;;;13.54;76.44;99268.83;5154511;56;1138473;-73
2021/05/14 06:05:29;;;;;;;16.43;8.47;;;;;;;13.61;76.67;99273.28;5154076;56;1139069;-72
2021/05/14 06:10:35;;;;;;;17.37;11.00;;;;;;;13.62;76.61;99274.11;5154106;56;1138645;-74
2021/05/14 06:15:41;;;;;;;17.20;11.37;;;;;;;13.71;76.50;99279.75;5153920;56;1140506;-72
2021/05/14 06:20:47;;;;;;;23.50;10.60;;;;;;;13.80;76.46;99277.89;5153967;56;1140568;-73
2021/05/14 06:25:53;;;;;;;13.97;7.27;;;;;;;13.84;76.45;99280.55;5154038;56;1140734;-73
2021/05/14 06:30:58;;;;;;;14.63;8.10;;;;;;;13.78;76.56;99278.56;5154519;56;1138459;-72
2021/05/14 06:36:05;;;;;;;13.22;6.33;;;;;;;13.78;76.93;99281.22;5154895;56;1138816;-72
2021/05/14 06:41:11;;;;;;;14.00;8.03;;;;;;;13.78;77.32;99279.39;5154761;56;1138676;-71
2021/05/14 06:46:17;;;;;;;15.65;8.43;;;;;;;13.83;77.28;99284.20;5154583;56;1138584;-72
2021/05/14 06:51:23;;;;;;;11.43;8.50;;;;;;;13.88;77.17;99285.86;5154552;56;1138423;-72
2021/05/14 06:56:30;;;;;;;9.23;6.53;;;;;;;13.86;77.66;99291.34;5154719;56;1139019;-72
2021/05/14 07:01:36;;;;;;;11.87;7.40;;;;;;;13.86;77.12;99283.87;5154737;56;1136393;-73
2021/05/14 07:06:41;;;;;;;14.53;6.80;;;;;;;13.92;77.33;99293.30;5154148;56;1138856;-73
2021/05/14 07:11:47;;;;;;;10.37;6.83;;;;;;;13.91;77.30;99298.79;5153545;56;1138650;-71
2021/05/14 07:16:53;;;;;;;10.50;5.37;;;;;;;13.92;78.02;99299.13;5153549;56;1138515;-72
2021/05/14 07:21:59;;;;;;;15.72;8.30;;;;;;;14.00;77.68;99308.42;5153838;56;1138269;-73
2021/05/14 07:27:06;;;;;;;11.78;7.78;;;;;;;14.02;77.97;99311.24;5153550;56;1138665;-72
2021/05/14 07:32:13;;;;;;;10.90;7.30;;;;;;;14.08;77.57;99325.16;5153319;56;1138293;-73
2021/05/14 07:37:19;;;;;;;13.60;7.90;;;;;;;14.07;77.24;99327.49;5152967;56;1138821;-71
2021/05/14 07:42:24;;;;;;;10.90;7.00;;;;;;;14.07;77.27;99328.82;5142070;56;1138716;-71
2021/05/14 07:47:30;;;;;;;29.33;7.80;;;;;;;14.09;77.40;99330.81;5100730;56;1138751;-74
2021/05/14 07:52:36;;;;;;;15.87;7.23;;;;;;;14.13;77.40;99329.98;5109882;56;1138859;-74
2021/05/14 07:57:41;;;;;;;16.07;8.03;;;;;;;14.15;77.61;99333.30;5142499;56;1138803;-73
2021/05/14 08:02:47;;;;;;;9.23;5.83;;;;;;;14.17;77.55;99335.80;5153428;56;1138434;-74
2021/05/14 08:08:18;;;;;;;10.43;4.80;;;;;;;14.21;77.82;99338.42;5153592;56;1136436;-72
2021/05/14 08:13:19;;;;;;;14.67;7.43;;;;;;;14.21;77.74;99343.23;5151980;56;1138513;-74
2021/05/14 08:18:24;;;;;;;11.10;5.70;;;;;;;14.16;77.37;99346.93;5146333;56;1138912;-73
2021/05/14 08:23:31;;;;;;;9.00;5.53;;;;;;;14.22;77.90;99348.05;5149832;56;1138822;-72
2021/05/14 08:28:36;;;;;;;5.07;4.53;;;;;;;14.28;77.60;99352.20;5152975;55;1136700;-74
2021/05/14 08:33:42;;;;;;;6.37;4.70;;;;;;;14.35;77.02;99346.55;5153809;56;1136733;-73
2021/05/14 08:38:48;;;;;;;4.57;3.20;;;;;;;14.45;77.46;99356.17;5153010;56;1136394;-74
2021/05/14 08:43:55;;;;;;;4.27;3.47;;;;;;;14.56;76.72;99357.12;5153589;56;1145892;-73
2021/05/14 08:49:03;;;;;;;3.22;3.02;;;;;;;14.51;76.15;99361.65;5153753;56;1136795;-73
2021/05/14 08:54:09;;;;;;;5.30;3.80;;;;;;;14.45;76.16;99362.33;5138875;56;1136603;-73
2021/05/14 08:59:15;;;;;;;3.97;3.13;;;;;;;14.41;76.07;99361.00;5108139;56;1136495;-75
2021/05/14 09:04:21;;;;;;;6.57;3.93;;;;;;;14.40;76.53;99373.97;5101167;56;1136550;-73
2021/05/14 09:09:27;;;;;;;11.27;4.70;;;;;;;14.34;76.41;99379.96;5098102;56;1136592;-73
2021/05/14 09:14:45;;;;;;;5.57;4.10;;;;;;;14.34;76.64;99378.13;5091654;57;1138920;-73
2021/05/14 09:19:51;;;;;;;6.37;4.47;;;;;;;14.42;76.80;99386.61;5091609;57;1136669;-76
2021/05/14 09:25:09;;;;;;;3.97;3.60;;;;;;;14.55;76.82;99384.23;5092370;57;1136983;-74
2021/05/14 09:30:12;;;;;;;7.53;5.00;;;;;;;14.63;75.48;99391.37;5091408;57;1136704;-76
2021/05/14 09:35:18;;;;;;;8.50;6.67;;;;;;;14.56;75.07;99397.03;5091679;57;1136321;-74
2021/05/14 09:40:25;;;;;;;12.93;7.57;;;;;;;14.57;75.26;99398.19;5091448;57;1136541;-73
2021/05/14 09:45:31;;;;;;;6.17;3.97;;;;;;;14.60;75.40;99403.18;5081242;57;1138509;-73
2021/05/14 09:50:38;;;;;;;4.90;4.17;;;;;;;14.61;75.17;99396.86;5055955;57;1136700;-76
2021/05/14 09:55:50;;;;;;;5.67;5.17;;;;;;;14.58;75.34;99405.17;5016779;57;1136342;-73
2021/05/14 10:00:55;;;;;;;5.30;4.80;;;;;;;14.59;75.26;99402.84;5012181;57;1136609;-74
2021/05/14 10:06:04;;;;;;;2.50;2.33;;;;;;;14.64;75.06;99400.52;5016967;57;1136186;-72
2021/05/14 10:11:11;;;;;;;5.83;4.15;;;;;;;14.69;74.67;99405.30;5060008;56;1136262;-74
2021/05/14 10:16:17;;;;;;;5.90;4.53;;;;;;;14.72;74.61;99402.30;5153573;56;1136439;-72
2021/05/14 10:21:24;;;;;;;14.47;4.87;;;;;;;14.84;74.61;99402.23;5154321;56;1136744;-76
2021/05/14 10:26:38;;;;;;;3.20;2.90;;;;;;;14.87;74.40;99404.55;5153844;56;1138347;-74
2021/05/14 10:31:48;;;;;;;5.63;3.73;;;;;;;14.97;73.86;99409.16;5154278;56;1136193;-75
2021/05/14 10:36:53;;;;;;;3.17;2.83;;;;;;;14.97;73.56;99403.83;5154295;56;1136165;-74
2021/05/14 10:42:09;;;;;;;3.30;3.00;;;;;;;14.99;73.40;99400.99;5123124;56;1136680;-73
2021/05/14 10:47:29;;;;;;;19.53;4.60;;;;;;;15.04;73.68;99403.47;5154270;56;1136697;-74
2021/05/14 10:52:35;;;;;;;5.33;4.03;;;;;;;15.06;73.27;99402.80;5153800;56;1138756;-74
2021/05/14 10:57:46;;;;;;;2.97;2.77;;;;;;;15.12;72.94;99404.75;5154158;56;1136712;-74
2021/05/14 11:03:14;;;;;;;3.47;3.17;;;;;;;15.14;72.97;99410.73;5153839;56;1136660;-75
2021/05/14 11:08:39;;;;;;;4.80;4.30;;;;;;;15.22;73.21;99411.20;5154372;56;1136966;-75
2021/05/14 11:13:51;;;;;;;4.60;4.10;;;;;;;15.33;73.41;99416.63;5153713;56;1137060;-75
2021/05/14 11:18:57;;;;;;;6.67;4.72;;;;;;;15.31;73.23;99418.12;5158505;56;1136992;-73
2021/05/14 11:24:10;;;;;;;6.65;5.92;;;;;;;15.35;73.00;99415.95;5143643;56;1136748;-74
2021/05/14 11:29:15;;;;;;;4.77;4.33;;;;;;;15.36;73.12;99412.28;5150608;56;1136730;-73
2021/05/14 11:34:21;;;;;;;8.07;3.70;;;;;;;15.46;72.95;99415.53;5153840;56;1136620;-72
2021/05/14 11:39:27;;;;;;;7.97;4.20;;;;;;;15.46;72.18;99415.53;5153802;56;1136441;-73
2021/05/14 11:44:34;;;;;;;3.27;3.07;;;;;;;15.50;72.12;99428.83;5153641;56;1136716;-72
2021/05/14 11:49:40;;;;;;;4.97;4.50;;;;;;;15.54;71.38;99423.98;5153712;56;1136639;-73
2021/05/14 11:54:45;;;;;;;7.47;5.70;;;;;;;15.48;71.32;99432.17;5153731;56;1136891;-75
2021/05/14 11:59:51;;;;;;;4.83;4.27;;;;;;;15.48;71.98;99438.83;5152297;56;1136728;-75
2021/05/14 12:04:57;;;;;;;6.27;5.07;;;;;;;15.52;71.71;99445.98;5153756;56;1136708;-74
2021/05/14 12:10:06;;;;;;;6.33;3.95;;;;;;;15.51;71.85;99450.48;5153570;56;1136633;-73
2021/05/14 12:15:21;;;;;;;5.78;4.22;;;;;;;15.49;71.47;99459.98;5154009;56;1136759;-73
2021/05/14 12:20:40;;;;;;;11.90;6.53;;;;;;;15.44;71.55;99453.51;5154671;56;1136316;-74
2021/05/14 12:25:49;;;;;;;6.90;5.30;;;;;;;15.46;72.05;99470.16;5154343;56;1138280;-73
2021/05/14 12:30:55;;;;;;;8.53;5.50;;;;;;;15.36;72.11;99477.55;5154408;56;1136670;-72
2021/05/14 12:36:07;;;;;;;7.40;5.77;;;;;;;15.28;72.14;99481.58;5154825;56;1136696;-73
2021/05/14 12:41:28;;;;;;;9.00;5.72;;;;;;;15.23;72.44;99479.95;5154983;56;1136404;-72
2021/05/14 12:46:34;;;;;;;9.70;6.07;;;;;;;15.20;72.81;99490.45;5154681;56;1136425;-73
2021/05/14 12:51:40;;;;;;;7.43;4.83;;;;;;;15.21;73.04;99490.78;5154120;56;1136242;-72
2021/05/14 12:56:46;;;;;;;5.83;5.03;;;;;;;15.26;72.58;99504.42;5154388;56;1136757;-74
2021/05/14 13:01:54;;;;;;;7.00;5.53;;;;;;;15.24;72.36;99506.42;5154135;56;1136264;-75
2021/05/14 13:07:07;;;;;;;6.43;4.80;;;;;;;15.18;72.45;99516.42;5154822;56;1147371;-73
2021/05/14 13:12:13;;;;;;;6.60;4.72;;;;;;;15.10;72.57;99521.30;5154453;56;1136721;-75
2021/05/14 13:17:18;;;;;;;7.60;5.43;;;;;;;15.00;72.49;99529.97;5154620;56;1136709;-74
2021/05/14 13:22:24;;;;;;;4.63;4.23;;;;;;;14.97;72.67;99530.84;5154537;56;1136826;-75
2021/05/14 13:27:30;;;;;;;5.10;3.98;;;;;;;14.97;72.90;99531.63;5154857;56;1136909;-74
2021/05/14 13:32:37;;;;;;;14.83;3.45;;;;;;;15.04;73.01;99531.30;5154478;56;1136725;-75
2021/05/14 13:37:43;;;;;;;9.77;4.43;;;;;;;15.10;72.37;99530.63;5153942;56;1138674;-72
2021/05/14 13:42:49;;;;;;;5.07;4.47;;;;;;;15.18;72.64;99527.58;5154389;56;1136737;-75
2021/05/14 13:47:54;;;;;;;7.30;4.83;;;;;;;15.27;72.20;99527.89;5154136;56;1137010;-76
2021/05/14 13:53:00;;;;;;;3.73;3.40;;;;;;;15.29;72.24;99531.19;5154376;56;1136672;-75
2021/05/14 13:58:05;;;;;;;4.62;3.98;;;;;;;15.23;72.34;99535.39;5154501;56;1136857;-73
2021/05/14 14:03:11;;;;;;;4.83;3.77;;;;;;;15.16;72.33;99542.40;5154585;56;1136926;-74
2021/05/14 14:08:17;;;;;;;5.08;3.35;;;;;;;15.09;72.90;99546.27;5154188;56;1136714;-74
2021/05/14 14:13:23;;;;;;;4.37;3.97;;;;;;;15.02;72.97;99551.10;5154348;56;1136728;-73
2021/05/14 14:18:29;;;;;;;5.47;3.30;;;;;;;14.97;73.29;99551.61;5154367;56;1136841;-75
2021/05/14 14:23:35;;;;;;;4.23;3.83;;;;;;;14.91;73.45;99550.98;5134973;56;1136755;-75
2021/05/14 14:28:41;;;;;;;3.30;2.70;;;;;;;14.81;73.48;99554.84;5092174;56;1136683;-72
2021/05/14 14:33:47;;;;;;;5.33;3.67;;;;;;;14.70;74.34;99550.17;5091912;56;1136722;-72
2021/05/14 14:38:53;;;;;;;6.07;3.57;;;;;;;14.64;74.55;99550.03;5092035;56;1136909;-75
2021/05/14 14:44:01;;;;;;;4.73;4.17;;;;;;;14.70;74.37;99556.83;5138135;56;1250958;-74
2021/05/14 14:49:06;;;;;;;5.58;2.75;;;;;;;14.72;74.06;99558.00;5122938;56;1136776;-74
2021/05/14 14:54:12;;;;;;;3.37;3.15;;;;;;;14.69;74.31;99553.84;5130396;56;1136846;-73
2021/05/14 14:59:17;;;;;;;4.83;2.55;;;;;;;14.70;74.23;99554.66;5135300;56;1136669;-73
2021/05/14 15:04:23;;;;;;;4.15;3.77;;;;;;;14.73;74.26;99560.49;5120051;56;1136956;-73
2021/05/14 15:09:30;;;;;;;11.70;10.60;;;;;;;14.70;74.92;99569.30;5132799;56;1136727;-73
2021/05/14 15:14:36;;;;;;;4.50;3.37;;;;;;;14.59;74.86;99570.98;5144297;56;1140888;-75
2021/05/14 15:19:42;;;;;;;65.00;44.90;;;;;;;14.48;75.43;99574.00;5154551;56;1137084;-74
2021/05/14 15:24:48;;;;;;;95.83;62.67;;;;;;;14.39;75.26;99572.63;5153527;56;1140863;-73
2021/05/14 15:29:54;;;;;;;7.53;4.92;;;;;;;14.39;75.74;99581.10;5153398;56;1140548;-74
2021/05/14 15:35:04;;;;;;;2.20;2.03;;;;;;;14.37;75.75;99581.76;5166068;56;1136540;-74
2021/05/14 15:40:11;;;;;;;2.95;2.75;;;;;;;14.28;76.10;99588.09;5141143;56;1136676;-74
2021/05/14 15:45:16;;;;;;;154.72;61.58;;;;;;;14.23;76.08;99591.23;5153413;56;1136629;-74
2021/05/14 15:50:22;;;;;;;109.13;55.30;;;;;;;14.27;76.10;99587.75;5153278;56;1142950;-73
2021/05/14 15:55:29;;;;;;;17.00;10.17;;;;;;;14.23;76.09;99593.06;5152770;56;1142618;-73
2021/05/14 16:00:35;;;;;;;31.43;16.50;;;;;;;14.17;76.39;99592.41;5153348;56;1140489;-73
2021/05/14 16:05:41;;;;;;;7.40;5.07;;;;;;;13.97;76.98;99596.69;5153300;56;1140491;-76
2021/05/14 16:10:46;;;;;;;8.23;6.90;;;;;;;13.89;76.71;99595.36;5153611;56;1136731;-73
2021/05/14 16:15:52;;;;;;;7.43;6.43;;;;;;;13.81;76.94;99593.98;5086393;56;1136192;-76
2021/05/14 16:20:57;;;;;;;137.73;56.17;;;;;;;13.79;77.16;99596.47;5014829;57;1136317;-75
2021/05/14 16:26:03;;;;;;;94.60;42.57;;;;;;;13.81;76.92;99598.47;5064574;56;1142661;-73
2021/05/14 16:31:09;;;;;;;84.95;39.73;;;;;;;13.82;76.78;99589.50;5078495;56;1140541;-73
2021/05/14 16:36:15;;;;;;;54.25;26.57;;;;;;;13.86;76.60;99591.69;5064381;57;1140442;-73
2021/05/14 16:41:20;;;;;;;28.77;15.57;;;;;;;13.90;76.42;99596.19;5064353;57;1140835;-73
2021/05/14 16:46:26;;;;;;;9.30;4.57;;;;;;;13.84;76.46;99590.18;5064119;57;1140353;-72
2021/05/14 16:51:32;;;;;;;3.37;2.23;;;;;;;13.81;76.67;99595.81;5064459;57;1136148;-73
2021/05/14 16:56:38;;;;;;;19.10;11.10;;;;;;;13.70;76.90;99599.12;5064466;57;1136480;-71
2021/05/14 17:01:44;;;;;;;13.43;10.33;;;;;;;13.56;77.17;99608.20;5064035;57;1140564;-71
2021/05/14 17:06:54;;;;;;;6.13;5.10;;;;;;;13.51;76.79;99605.18;5063973;57;1140566;-74
2021/05/14 17:12:00;;;;;;;4.77;3.50;;;;;;;13.52;76.75;99612.16;5064454;57;1136353;-75
2021/05/14 17:17:06;;;;;;;5.87;4.80;;;;;;;13.46;76.86;99620.26;5064335;57;1136573;-73
2021/05/14 17:22:11;;;;;;;4.80;4.40;;;;;;;13.45;76.73;99621.75;5064457;57;1136484;-75
2021/05/14 17:27:19;;;;;;;6.73;5.00;;;;;;;13.43;76.62;99630.39;5065376;57;1136604;-71
2021/05/14 17:32:25;;;;;;;7.73;5.83;;;;;;;13.32;77.33;99635.47;5061636;57;1136933;-72
2021/05/14 17:37:30;;;;;;;5.67;4.73;;;;;;;13.29;77.34;99631.83;5065220;57;1136346;-74
2021/05/14 17:42:36;;;;;;;7.40;6.30;;;;;;;13.25;77.39;99644.58;5065283;57;1136785;-76
2021/05/14 17:47:42;;;;;;;8.17;5.80;;;;;;;13.19;77.15;99649.67;5065078;57;1136418;-73
2021/05/14 17:52:48;;;;;;;7.10;4.70;;;;;;;13.20;77.05;99650.01;5065276;57;1136221;-72
2021/05/14 17:57:54;;;;;;;5.80;4.57;;;;;;;13.21;76.87;99647.69;5065348;57;1136206;-74
2021/05/14 18:03:00;;;;;;;8.07;5.63;;;;;;;13.18;76.85;99658.13;5065311;57;1136838;-74
2021/05/14 18:08:06;;;;;;;9.53;3.37;;;;;;;13.16;76.72;99660.59;5065607;56;1136309;-72
2021/05/14 18:13:12;;;;;;;19.98;10.98;;;;;;;13.19;76.45;99664.27;5065478;57;1136278;-74
2021/05/14 18:18:27;;;;;;;22.20;10.88;;;;;;;13.20;76.45;99660.13;5113441;56;1140392;-72
2021/05/14 18:23:25;;;;;;;24.77;13.67;;;;;;;13.18;76.63;99667.91;5154510;56;1140581;-71
2021/05/14 18:28:31;;;;;;;14.53;8.58;;;;;;;13.12;76.63;99676.00;5177383;56;1140554;-74
2021/05/14 18:33:37;;;;;;;12.50;7.33;;;;;;;13.07;76.83;99680.93;5177857;56;1138253;-74
2021/05/14 18:38:43;;;;;;;7.50;4.62;;;;;;;12.99;76.67;99680.36;5177732;56;1138327;-71
2021/05/14 18:43:49;;;;;;;9.87;3.80;;;;;;;12.91;77.11;99689.60;5177982;56;1136186;-74
2021/05/14 18:48:55;;;;;;;6.43;3.50;;;;;;;12.81;76.84;99695.50;5178085;56;1136399;-72
2021/05/14 18:54:01;;;;;;;3.20;2.67;;;;;;;12.75;76.78;99700.08;5177935;56;1136638;-71
2021/05/14 18:59:07;;;;;;;4.03;2.90;;;;;;;12.63;76.81;99699.49;5178193;56;1136724;-69
2021/05/14 19:04:12;;;;;;;2.27;1.92;;;;;;;12.60;76.85;99711.72;5079059;56;1136432;-71
2021/05/14 19:09:18;;;;;;;3.72;2.40;;;;;;;12.57;76.72;99715.16;5017567;57;1136430;-71
2021/05/14 19:14:24;;;;;;;2.80;2.60;;;;;;;12.51;76.57;99718.44;5017373;57;1136682;-69
2021/05/14 19:19:30;;;;;;;5.70;2.43;;;;;;;12.48;76.65;99731.50;5097535;56;1136319;-73
2021/05/14 19:24:39;;;;;;;2.87;2.27;;;;;;;12.42;77.02;99722.81;5101678;56;1136666;-73
2021/05/14 19:35:24;;;;;;;3.67;2.80;;;;;;;12.43;76.31;99735.58;5104810;56;1136232;-74
2021/05/14 19:50:55;;;;;;;5.78;2.27;;;;;;;12.37;75.52;99738.36;5153528;56;1136274;-72
2021/05/14 19:56:05;;;;;;;2.53;1.93;;;;;;;12.31;75.59;99748.22;5153454;56;1136312;-73
2021/05/14 20:01:08;;;;;;;4.17;2.63;;;;;;;12.28;75.71;99761.28;5153756;56;1136470;-71
2021/05/14 20:06:14;;;;;;;3.90;2.00;;;;;;;12.26;75.69;99758.43;5146260;56;1136369;-75
2021/05/14 20:11:20;;;;;;;2.25;1.82;;;;;;;12.27;75.56;99759.61;5101727;56;1136293;-74
2021/05/14 20:16:26;;;;;;;3.23;1.40;;;;;;;12.25;75.18;99757.59;5101237;56;1136732;-68
2021/05/14 20:21:32;;;;;;;2.83;1.67;;;;;;;12.22;74.81;99763.19;5101255;56;1136190;-69
2021/05/14 20:26:38;;;;;;;4.80;1.30;;;;;;;12.17;74.85;99768.61;5137628;55;1136239;-71
2021/05/14 20:31:45;;;;;;;1.60;1.50;;;;;;;12.08;74.20;99774.77;5153769;56;1136171;-70
2021/05/14 20:36:57;;;;;;;2.17;1.20;;;;;;;12.00;74.15;99778.17;5153469;56;1136666;-71
2021/05/14 20:41:59;;;;;;;4.47;1.03;;;;;;;11.89;74.06;99781.84;5153170;56;1136300;-69
2021/05/14 20:47:06;;;;;;;1.27;1.17;;;;;;;11.90;74.14;99791.95;5153821;56;1137138;-72
2021/05/14 20:52:12;;;;;;;1.80;1.10;;;;;;;11.85;74.20;99788.90;5153942;56;1136469;-71
2021/05/14 20:57:19;;;;;;;2.25;1.42;;;;;;;11.86;74.14;99790.08;5153760;56;1136397;-72
2021/05/14 21:02:26;;;;;;;3.03;1.27;;;;;;;11.84;73.91;99792.52;5153885;56;1136623;-70
2021/05/14 21:07:31;;;;;;;2.77;1.10;;;;;;;11.79;74.00;99796.92;5153419;56;1136698;-72
2021/05/14 21:12:37;;;;;;;1.60;1.50;;;;;;;11.76;73.72;99787.97;5153460;56;1136743;-70
2021/05/14 21:17:43;;;;;;;2.40;1.10;;;;;;;11.66;73.24;99786.27;5153226;56;1136669;-71
2021/05/14 21:22:49;;;;;;;2.73;1.70;;;;;;;11.56;73.25;99782.33;5153380;56;1136604;-71
2021/05/14 21:27:55;;;;;;;4.73;1.83;;;;;;;11.43;73.45;99790.59;5153437;56;1136758;-71
2021/05/14 21:33:01;;;;;;;2.50;2.30;;;;;;;11.34;73.60;99795.39;5142067;56;1136711;-70
2021/05/14 21:38:08;;;;;;;1.52;1.37;;;;;;;11.31;73.71;99786.41;5132892;56;1136899;-72
2021/05/14 21:43:14;;;;;;;1.90;1.80;;;;;;;11.32;73.87;99790.72;5135755;56;1136997;-70
2021/05/14 21:48:19;;;;;;;3.60;2.30;;;;;;;11.29;73.92;99793.67;5153358;56;1137060;-71
2021/05/14 21:53:27;;;;;;;3.37;2.90;;;;;;;11.25;74.09;99789.63;5153450;56;1136700;-72
2021/05/14 21:58:33;;;;;;;2.60;2.27;;;;;;;11.21;74.13;99786.91;5153533;56;1136810;-73
2021/05/14 22:03:39;;;;;;;6.80;2.10;;;;;;;11.21;74.43;99786.42;5153687;56;1136729;-71
2021/05/14 22:08:45;;;;;;;1.97;1.87;;;;;;;11.22;74.31;99785.94;5146776;56;1136879;-70
2021/05/14 22:13:51;;;;;;;5.93;2.93;;;;;;;11.17;74.77;99786.84;5149940;56;1136688;-72
2021/05/14 22:18:57;;;;;;;3.53;2.40;;;;;;;11.15;74.70;99783.52;5153435;56;1136726;-71
2021/05/14 22:24:03;;;;;;;3.43;2.53;;;;;;;11.11;75.50;99785.61;5153292;56;1136932;-72
2021/05/14 22:29:09;;;;;;;4.73;3.10;;;;;;;11.06;75.52;99785.67;5133365;56;1139200;-73
2021/05/14 22:34:17;;;;;;;4.00;3.60;;;;;;;11.08;75.41;99786.37;5154383;56;1136770;-71
2021/05/14 22:39:23;;;;;;;3.98;3.62;;;;;;;11.08;75.41;99786.37;5154672;56;1136725;-72
2021/05/14 22:44:28;;;;;;;7.93;4.00;;;;;;;11.07;75.42;99788.66;5154408;56;1136888;-69
2021/05/14 22:49:34;;;;;;;12.50;5.03;;;;;;;11.00;75.96;99791.54;5154518;56;1136854;-70
2021/05/14 22:54:40;;;;;;;8.57;4.60;;;;;;;10.93;76.19;99789.92;5154136;56;1138705;-70
2021/05/14 22:59:46;;;;;;;8.33;6.20;;;;;;;10.83;77.15;99793.90;5145404;56;1136672;-72
2021/05/14 23:04:52;;;;;;;6.23;5.27;;;;;;;10.78;76.83;99793.95;5150057;56;1136660;-72
2021/05/14 23:09:58;;;;;;;7.03;4.60;;;;;;;10.77;77.03;99794.44;5154502;56;1136651;-70
2021/05/14 23:15:04;;;;;;;7.07;6.10;;;;;;;10.75;77.87;99796.38;5155094;56;1136698;-70
2021/05/14 23:20:12;;;;;;;6.37;5.00;;;;;;;10.75;77.13;99793.73;5155172;56;1136773;-72
2021/05/14 23:25:17;;;;;;;4.87;3.62;;;;;;;10.75;77.50;99800.34;5154923;56;1137117;-71
2021/05/14 23:30:23;;;;;;;7.87;4.15;;;;;;;10.74;78.01;99797.84;5153880;56;1136885;-72
2021/05/14 23:35:29;;;;;;;6.00;3.47;;;;;;;10.64;78.24;99799.16;5154722;56;1136862;-71
2021/05/14 23:40:34;;;;;;;6.60;3.37;;;;;;;10.63;78.12;99794.84;5154867;56;1136387;-74